• Join FlightAware (Why Join?)
  • Login
  • US Flag 
11:24AM EDT


 

Airport Tracker/Info


-or-


 

Live Flight TrackerFlight Track Log ✈ GJS3636 ✈ 17-Jun-2013 ✈ KORD - KMCI

Flight Track Log - Related Links

Times and Time Zones

All times are in EDT time to prevent confusion due to time zone crossing. See the GJS3636 flight status page for this flight to view local times or setup timezone preferences in your user account.

Time Position Orientation Groundspeed Altitude Reporting Facility
EDT Latitude Longitude Course Direction KTS MPH feet Rate Location/Type
09:06AM 42.0000 -87.9833 254° West 168 193 2,700  Level Chicago TRACON
09:07AM 41.9833 -88.0667 255° West 225 259 4,500 2,040 Climbing Chicago TRACON
09:09AM 41.9797 -88.1592 267° West 239 275 7,000 2,340 Climbing Chicago Center
09:10AM 41.9683 -88.2597 261° West 269 310 9,500 2,580 Climbing Chicago Center
09:11AM 41.9569 -88.3608 261° West 275 316 12,400 1,680 Climbing Chicago Center
09:12AM 41.8066 -88.6044 254° West  Level FlightAware Approximate
09:12AM 41.9439 -88.4639 260° West 282 325 13,000  Level Chicago Center
09:13AM 41.9319 -88.5672 261° West 284 327 13,000  Level Chicago Center
09:14AM 41.9186 -88.6917 262° West 284 327 13,100 900 Climbing Chicago Center
09:15AM 41.8817 -88.8086 247° West 337 388 14,900 1,740 Climbing Chicago Center
09:16AM 41.8467 -88.9283 249° West 346 398 16,800 1,740 Climbing Chicago Center
09:17AM 41.8100 -89.0511 248° West 355 409 18,500 1,440 Climbing Chicago Center
09:18AM 41.7719 -89.1758 248° West 364 419 19,800 1,320 Climbing Chicago Center
09:19AM 41.7242 -89.3381 249° West 391 450 21,300 1,440 Climbing Chicago Center
09:20AM 41.6844 -89.4714 248° West 391 450 22,800 1,200 Climbing Chicago Center
09:21AM 41.6464 -89.5936 247° West 394 453 23,800 1,080 Climbing Chicago Center
09:22AM 41.5961 -89.7592 248° West 402 463 25,100 1,080 Climbing Chicago Center
09:23AM 41.5447 -89.8972 244° Southwest 417 480 26,100 960 Climbing Chicago Center
09:24AM 41.4800 -90.0247 236° Southwest 419 482 27,100 960 Climbing Chicago Center
09:25AM 41.4136 -90.1553 236° Southwest 425 489 28,100 1,080 Climbing Chicago Center
09:26AM 41.3494 -90.2842 236° Southwest 422 486 29,400 1,260 Climbing Chicago Center
09:27AM 41.2722 -90.4364 236° Southwest 416 479 30,800 1,260 Climbing Chicago Center
09:28AM 41.2083 -90.5628 236° Southwest 417 480 32,100 1,200 Climbing Chicago Center
09:29AM 41.1464 -90.6828 236° Southwest 406 467 33,400 1,200 Climbing Chicago Center
09:30AM 41.0875 -90.7983 236° Southwest 389 448 34,600 1,020 Climbing Chicago Center
09:31AM 41.0311 -90.9083 236° Southwest 372 428 35,600 660 Climbing Chicago Center
09:32AM 40.9742 -91.0183 236° Southwest 365 420 36,000 180 Climbing Chicago Center
09:33AM 40.9056 -91.1489 235° Southwest 363 418 36,000  Level Chicago Center
09:34AM 40.8486 -91.2556 235° Southwest 358 412 36,000  Level Chicago Center
09:35AM 40.8000 -91.3536 237° Southwest 355 409 36,000  Level Chicago Center
09:36AM 40.7306 -91.4831 235° Southwest 360 414 36,000  Level Chicago Center
09:38AM 40.6736 -91.5931 236° Southwest 365 420 36,000 -240 Level Chicago Center
09:39AM 40.6136 -91.7028 234° Southwest 370 426 35,600 -720 Descending Chicago Center
09:39AM 40.5906 -91.7450 234° Southwest 368 423 35,000 -1,080 Descending Kansas City Center
09:40AM 40.5328 -91.8544 235° Southwest 366 421 34,000 -960 Descending Kansas City Center
09:41AM 40.4983 -91.9222 236° Southwest 369 425 33,500 -1,140 Descending Chicago Center
09:42AM 40.4361 -92.0692 241° Southwest 383 441 32,200 -1,080 Descending Chicago Center
09:43AM 40.3800 -92.2003 241° Southwest 407 468 31,300 -960 Descending Chicago Center
09:43AM 40.3567 -92.2514 239° Southwest 411 473 30,800 -900 Descending Kansas City Center
09:44AM 40.2911 -92.4008 240° Southwest 415 478 30,000 -480 Descending Kansas City Center
09:45AM 40.2344 -92.5300 240° Southwest 422 486 29,900 -900 Descending Kansas City Center
09:46AM 40.1789 -92.6586 241° Southwest 425 489 28,300 -1,620 Descending Kansas City Center
09:47AM 40.1122 -92.8086 240° Southwest 426 490 26,600 -1,680 Descending Kansas City Center
09:48AM 40.0511 -92.9478 240° Southwest 415 478 24,900 -1,560 Descending Kansas City Center
09:49AM 39.9939 -93.0733 239° Southwest 408 470 23,400 -1,440 Descending Kansas City Center
09:50AM 39.9386 -93.1964 240° Southwest 400 460 22,000 -1,500 Descending Kansas City Center
09:51AM 39.8828 -93.3200 240° Southwest 398 458 20,400 -1,500 Descending Kansas City Center
09:52AM 39.8294 -93.4397 240° Southwest 389 448 18,900 -1,320 Descending Kansas City Center
09:53AM 39.7778 -93.5517 239° Southwest 374 430 17,800 -1,560 Descending Kansas City Center
09:55AM 39.7161 -93.6883 240° Southwest 369 425 15,700 -1,680 Descending Kansas City Center
09:56AM 39.6672 -93.7914 238° Southwest 368 423 14,300 -1,560 Descending Kansas City Center
09:57AM 39.6089 -93.9192 239° Southwest 367 422 12,600 -1,140 Descending Kansas City Center
09:58AM 39.5564 -94.0233 237° Southwest 362 417 12,000 -300 Descending Kansas City Center
09:59AM 39.4944 -94.1442 236° Southwest 360 414 12,000 -60 Level Kansas City Center
10:00AM 39.4425 -94.2478 237° Southwest 358 412 11,900 -60 Descending Kansas City Center
10:01AM 39.3839 -94.3639 237° Southwest 347 399 11,900 -600 Level Kansas City Center
10:02AM 39.3369 -94.4553 236° Southwest 321 369 10,700 -1,260 Descending Kansas City Center
10:03AM 39.2892 -94.5497 237° Southwest 282 325 9,400 -1,320 Descending Kansas City Center
10:04AM 39.2453 -94.6058 225° Southwest 241 277 8,100 -1,440 Descending Kansas City Center
10:06AM 39.1000 -94.6333 188° South 231 266 4,900 -1,080 Descending Kansas City TRACON
10:07AM 39.1000 -94.7167 270° West 233 268 4,700 -840 Descending Kansas City TRACON
10:08AM 39.1494 -94.7672 322° Northwest 227 261 3,300 -1,380 Descending Kansas City Center